createdAt,value
2019-05-14T00:01:22.184Z,97.73
2019-05-14T00:03:51.600Z,98.59
2019-05-14T00:06:21.923Z,98.65
2019-05-14T00:08:52.158Z,98.70
2019-05-14T00:11:21.935Z,98.43
2019-05-14T00:13:52.011Z,98.42
2019-05-14T00:16:23.838Z,98.73
2019-05-14T00:18:51.221Z,99.04
2019-05-14T00:23:51.393Z,99.82
2019-05-14T00:26:21.484Z,100.00
2019-05-14T00:28:51.233Z,100.00
2019-05-14T00:31:21.388Z,100.00
2019-05-14T00:33:51.301Z,100.00
2019-05-14T00:36:21.513Z,100.00
2019-05-14T00:38:51.295Z,100.00
2019-05-14T00:41:21.490Z,100.00
2019-05-14T00:43:51.389Z,100.00
2019-05-14T00:46:21.170Z,100.00
2019-05-14T00:48:51.408Z,99.72
2019-05-14T00:51:21.464Z,99.41
2019-05-14T00:53:51.567Z,99.95
2019-05-14T00:56:21.630Z,100.00
2019-05-14T00:58:51.941Z,100.00
2019-05-14T01:01:21.471Z,100.00
2019-05-14T01:04:02.916Z,100.00
2019-05-14T01:06:31.643Z,100.00
2019-05-14T01:09:01.534Z,100.00
2019-05-14T01:11:31.607Z,100.00
2019-05-14T01:14:21.092Z,100.00
2019-05-14T01:16:51.413Z,100.00
2019-05-14T01:19:21.397Z,100.00
2019-05-14T01:22:31.657Z,100.00
2019-05-14T01:25:01.561Z,100.00
2019-05-14T01:27:31.716Z,100.00
2019-05-14T01:30:02.105Z,100.00
2019-05-14T01:32:31.496Z,100.00
2019-05-14T01:35:01.405Z,100.00
2019-05-14T01:37:31.105Z,100.00
2019-05-14T01:40:01.215Z,100.00
2019-05-14T01:42:32.112Z,100.00
2019-05-14T01:45:02.566Z,100.00
2019-05-14T01:47:31.847Z,100.00
2019-05-14T01:50:02.146Z,100.00
2019-05-14T01:52:31.826Z,100.00
2019-05-14T01:55:02.180Z,100.00
2019-05-14T01:57:31.176Z,100.00
2019-05-14T02:00:02.324Z,100.00
2019-05-14T02:02:31.321Z,100.00
2019-05-14T02:05:02.036Z,100.00
2019-05-14T02:07:31.443Z,100.00
2019-05-14T02:10:01.149Z,100.00
2019-05-14T02:12:31.587Z,100.00
2019-05-14T02:15:01.931Z,100.00
2019-05-14T02:17:31.789Z,100.00
2019-05-14T02:20:02.052Z,100.00
2019-05-14T02:22:32.010Z,100.00
2019-05-14T02:25:02.344Z,100.00
2019-05-14T02:27:34.766Z,100.00
2019-05-14T02:32:29.959Z,100.00
2019-05-14T02:35:20.174Z,100.00
2019-05-14T02:37:50.491Z,100.00
2019-05-14T02:41:00.028Z,100.00
2019-05-14T02:43:29.431Z,100.00
2019-05-14T02:46:10.663Z,100.00
2019-05-14T02:48:29.549Z,100.00
2019-05-14T02:50:59.778Z,100.00
2019-05-14T02:54:09.881Z,100.00
2019-05-14T02:56:40.249Z,100.00
2019-05-14T02:59:09.987Z,100.00
2019-05-14T03:01:40.521Z,100.00
2019-05-14T03:04:09.351Z,100.00
2019-05-14T03:06:39.696Z,100.00
2019-05-14T03:09:09.908Z,100.00
2019-05-14T03:11:40.436Z,100.00
2019-05-14T03:14:09.326Z,100.00
2019-05-14T03:16:40.168Z,100.00
2019-05-14T03:19:09.949Z,100.00
2019-05-14T03:21:39.728Z,100.00
2019-05-14T03:24:09.657Z,100.00
2019-05-14T03:26:39.815Z,100.00
2019-05-14T03:29:10.054Z,100.00
2019-05-14T03:31:53.310Z,100.00
2019-05-14T03:34:22.620Z,100.00
2019-05-14T03:36:53.202Z,100.00
2019-05-14T03:39:21.730Z,100.00
2019-05-14T03:41:50.242Z,100.00
2019-05-14T03:44:20.128Z,100.00
2019-05-14T03:46:54.724Z,100.00
2019-05-14T03:49:19.799Z,100.00
2019-05-14T03:51:49.826Z,100.00
2019-05-14T03:54:19.475Z,100.00
2019-05-14T03:56:49.710Z,100.00
2019-05-14T03:59:19.905Z,100.00
2019-05-14T04:01:51.186Z,100.00
2019-05-14T04:04:19.570Z,100.00
2019-05-14T04:07:22.499Z,100.00
2019-05-14T04:10:24.073Z,100.00
2019-05-14T04:13:29.985Z,100.00
2019-05-14T04:15:59.742Z,100.00
2019-05-14T04:21:48.824Z,100.00
2019-05-14T04:24:15.567Z,100.00
2019-05-14T04:27:23.897Z,100.00
2019-05-14T04:30:32.212Z,100.00
2019-05-14T04:33:33.774Z,100.00
2019-05-14T04:36:02.075Z,100.00
2019-05-14T04:38:30.443Z,100.00
2019-05-14T04:40:59.891Z,100.00
2019-05-14T04:43:29.622Z,100.00
2019-05-14T04:45:59.354Z,100.00
2019-05-14T04:48:37.145Z,100.00
2019-05-14T04:51:00.534Z,100.00
2019-05-14T04:53:30.808Z,100.00
2019-05-14T04:56:00.050Z,100.00
2019-05-14T04:58:29.826Z,100.00
2019-05-14T05:01:00.645Z,100.00
2019-05-14T05:18:49.588Z,96.31
2019-05-14T05:24:20.300Z,93.12
2019-05-14T05:36:52.075Z,89.58
2019-05-14T05:39:20.699Z,88.76
2019-05-14T05:41:49.315Z,86.78
2019-05-14T05:44:32.481Z,85.92
2019-05-14T05:47:00.736Z,84.54
2019-05-14T05:49:29.330Z,85.30
2019-05-14T06:01:21.812Z,83.17
2019-05-14T06:07:02.388Z,85.43
2019-05-14T06:09:29.076Z,85.25
2019-05-14T06:20:18.943Z,83.86
2019-05-14T06:25:36.136Z,83.05
2019-05-14T06:28:04.403Z,83.08
2019-05-14T06:33:39.350Z,83.13
2019-05-14T06:36:08.596Z,82.41
2019-05-14T06:38:38.815Z,81.65
2019-05-14T06:44:18.720Z,81.47
2019-05-14T06:49:44.998Z,79.41
2019-05-14T06:52:13.281Z,78.90
2019-05-14T06:54:41.567Z,80.49
2019-05-14T06:57:09.828Z,78.16
2019-05-14T07:02:28.479Z,76.10
2019-05-14T07:04:58.814Z,75.38
2019-05-14T07:07:29.693Z,75.95
2019-05-14T07:09:58.210Z,75.97
2019-05-14T07:18:19.358Z,73.51
2019-05-14T07:23:50.693Z,70.54
2019-05-14T07:29:34.888Z,71.72
2019-05-14T07:32:03.174Z,73.77
2019-05-14T07:35:12.280Z,71.66
2019-05-14T07:40:52.602Z,68.84
2019-05-14T07:49:15.655Z,67.61
2019-05-14T07:55:02.526Z,64.07
2019-05-14T07:57:49.934Z,64.34
2019-05-14T08:03:19.288Z,63.15
2019-05-14T08:05:48.298Z,63.10
2019-05-14T08:18:52.157Z,59.10
2019-05-14T08:24:39.616Z,59.53
2019-05-14T08:27:08.510Z,58.54
2019-05-14T08:29:54.988Z,56.81
2019-05-14T08:32:23.273Z,56.81
2019-05-14T08:38:45.350Z,59.53
2019-05-14T08:41:59.542Z,61.10
2019-05-14T08:47:29.419Z,59.19
2019-05-14T08:52:54.325Z,59.74
2019-05-14T08:58:39.776Z,62.87
2019-05-14T09:01:08.389Z,64.60
2019-05-14T09:03:39.333Z,62.87
2019-05-14T09:06:09.114Z,61.04
2019-05-14T09:08:39.012Z,57.01
2019-05-14T09:11:09.972Z,56.77
2019-05-14T09:13:38.615Z,56.18
2019-05-14T09:22:02.490Z,57.35
2019-05-14T09:24:30.789Z,57.68
2019-05-14T09:26:59.426Z,56.87
2019-05-14T09:29:29.706Z,56.01
2019-05-14T09:31:59.397Z,57.57
2019-05-14T09:37:19.212Z,54.37
2019-05-14T09:39:48.850Z,53.86
2019-05-14T09:42:50.927Z,53.32
2019-05-14T09:45:19.210Z,54.61
2019-05-14T09:47:50.542Z,53.96
2019-05-14T09:53:38.567Z,52.33
2019-05-14T09:59:32.135Z,50.65
2019-05-14T10:04:53.670Z,52.44
2019-05-14T10:07:55.467Z,52.44
2019-05-14T10:10:23.827Z,52.66
2019-05-14T10:12:56.877Z,48.75
2019-05-14T10:18:28.557Z,50.88
2019-05-14T10:23:47.245Z,47.15
2019-05-14T10:26:18.345Z,45.29
2019-05-14T10:29:28.579Z,43.45
2019-05-14T10:31:59.237Z,44.71
2019-05-14T10:34:28.704Z,43.77
2019-05-14T10:37:10.173Z,42.83
2019-05-14T10:39:39.323Z,42.43
2019-05-14T10:42:29.390Z,44.43
2019-05-14T10:50:57.305Z,42.45
2019-05-14T10:54:16.862Z,45.60
2019-05-14T10:57:13.940Z,45.73
2019-05-14T10:59:42.243Z,45.74
2019-05-14T11:02:12.163Z,46.10
2019-05-14T11:07:10.615Z,42.92
2019-05-14T11:13:03.567Z,43.45
2019-05-14T11:15:31.932Z,43.03
2019-05-14T11:18:40.528Z,41.66
2019-05-14T11:24:21.100Z,41.44
2019-05-14T11:26:49.395Z,45.29
2019-05-14T11:29:19.744Z,45.18
2019-05-14T11:32:29.244Z,43.10
2019-05-14T11:35:19.186Z,43.00
2019-05-14T11:37:48.026Z,43.73
2019-05-14T11:43:03.370Z,44.13
2019-05-14T11:48:20.699Z,43.52
2019-05-14T11:51:09.166Z,46.20
2019-05-14T11:53:38.688Z,46.20
2019-05-14T11:56:08.916Z,43.93
2019-05-14T12:02:02.859Z,43.82
2019-05-14T12:04:31.481Z,44.08
2019-05-14T12:10:09.045Z,41.70
2019-05-14T12:12:37.541Z,43.60
2019-05-14T12:15:48.328Z,42.59
2019-05-14T12:18:18.390Z,42.08
2019-05-14T12:21:08.764Z,44.18
2019-05-14T12:24:13.718Z,43.41
2019-05-14T12:35:20.319Z,40.28
2019-05-14T12:37:48.892Z,42.91
2019-05-14T12:47:35.271Z,42.59
2019-05-14T12:53:19.935Z,42.49
2019-05-14T12:58:34.653Z,41.36
2019-05-14T13:03:48.522Z,41.11
2019-05-14T13:06:19.099Z,41.83
2019-05-14T13:08:49.155Z,41.53
2019-05-14T13:11:17.491Z,40.70
2019-05-14T13:13:49.006Z,40.54
2019-05-14T13:16:19.257Z,40.08
2019-05-14T13:18:49.887Z,40.14
2019-05-14T13:24:04.739Z,40.21
2019-05-14T13:26:33.086Z,41.80
2019-05-14T13:29:01.421Z,40.13
2019-05-14T13:31:29.691Z,39.90
2019-05-14T13:34:39.709Z,40.66
2019-05-14T13:40:50.308Z,40.43
2019-05-14T13:46:05.126Z,39.92
2019-05-14T13:49:14.536Z,38.83
2019-05-14T13:52:03.787Z,40.75
2019-05-14T13:54:32.101Z,39.61
2019-05-14T13:59:49.291Z,40.91
2019-05-14T14:08:10.804Z,38.66
2019-05-14T14:10:44.795Z,37.56
2019-05-14T14:13:11.230Z,38.91
2019-05-14T14:15:39.407Z,38.98
2019-05-14T14:18:07.731Z,37.99
2019-05-14T14:20:36.073Z,39.28
2019-05-14T14:23:39.318Z,38.38
2019-05-14T14:26:09.485Z,37.28
2019-05-14T14:28:52.703Z,37.67
2019-05-14T14:34:22.556Z,39.24
2019-05-14T14:37:10.140Z,39.73
2019-05-14T14:39:38.397Z,39.51
2019-05-14T14:45:29.261Z,38.00
2019-05-14T14:51:41.856Z,39.18
2019-05-14T14:54:10.569Z,38.40
2019-05-14T14:56:52.695Z,39.68
2019-05-14T15:02:53.539Z,39.26
2019-05-14T15:05:21.898Z,39.69
2019-05-14T15:07:50.518Z,39.47
2019-05-14T15:15:52.743Z,43.59
2019-05-14T15:21:09.815Z,42.83
2019-05-14T15:23:42.533Z,42.60
2019-05-14T15:26:23.588Z,42.61
2019-05-14T15:28:51.887Z,42.72
2019-05-14T15:34:08.945Z,43.61
2019-05-14T15:36:41.337Z,44.18
2019-05-14T15:42:13.681Z,44.41
2019-05-14T15:44:48.992Z,43.64
2019-05-14T15:47:11.607Z,44.68
2019-05-14T15:49:38.982Z,43.42
2019-05-14T15:52:08.587Z,44.61
2019-05-14T15:54:46.410Z,44.67
2019-05-14T15:57:08.983Z,43.91
2019-05-14T15:59:39.097Z,44.16
2019-05-14T16:02:41.055Z,44.60
2019-05-14T16:05:43.525Z,44.01
2019-05-14T16:08:11.904Z,45.41
2019-05-14T16:10:40.224Z,45.35
2019-05-14T16:13:09.016Z,45.34
2019-05-14T16:22:02.223Z,46.21
2019-05-14T16:27:51.826Z,44.77
2019-05-14T16:30:20.125Z,44.03
2019-05-14T16:33:29.222Z,45.07
2019-05-14T16:38:44.094Z,44.29
2019-05-14T16:41:12.394Z,43.55
2019-05-14T16:43:40.656Z,42.39
2019-05-14T16:46:09.790Z,43.97
2019-05-14T16:49:12.895Z,42.89
2019-05-14T16:51:41.018Z,43.10
2019-05-14T16:54:29.486Z,43.89
2019-05-14T16:57:11.336Z,44.40
2019-05-14T16:59:53.808Z,45.21
2019-05-14T17:02:22.040Z,44.98
2019-05-14T17:07:45.140Z,45.53
2019-05-14T17:10:49.758Z,44.83
2019-05-14T17:13:18.076Z,45.13
2019-05-14T17:15:48.127Z,45.58
2019-05-14T17:18:19.117Z,46.18
2019-05-14T17:20:48.705Z,44.72
2019-05-14T17:26:24.813Z,45.27
2019-05-14T17:28:53.099Z,45.77
2019-05-14T17:31:21.311Z,46.73
2019-05-14T17:33:49.629Z,46.26
2019-05-14T17:36:18.759Z,46.53
2019-05-14T17:39:21.273Z,46.57
2019-05-14T17:45:24.999Z,47.21
2019-05-14T17:48:12.724Z,47.42
2019-05-14T17:50:44.630Z,47.46
2019-05-14T17:53:11.511Z,48.23
2019-05-14T17:55:46.658Z,48.06
2019-05-14T18:04:02.405Z,47.46
2019-05-14T18:06:30.672Z,46.79
2019-05-14T18:08:59.005Z,46.47
2019-05-14T18:11:28.356Z,47.07
2019-05-14T18:13:58.960Z,47.80
2019-05-14T18:19:37.864Z,46.51
2019-05-14T18:22:05.700Z,46.61
2019-05-14T18:24:33.968Z,46.93
2019-05-14T18:29:51.205Z,47.18
2019-05-14T18:32:19.476Z,46.75
2019-05-14T18:34:48.675Z,46.60
2019-05-14T18:37:18.338Z,46.39
2019-05-14T18:39:48.343Z,46.54
2019-05-14T18:42:19.065Z,46.02
2019-05-14T18:44:49.762Z,46.40
2019-05-14T18:47:20.133Z,47.20
2019-05-14T18:49:48.731Z,47.80
2019-05-14T18:52:18.530Z,48.17
2019-05-14T18:54:48.318Z,47.83
2019-05-14T18:57:18.070Z,48.58
2019-05-14T18:59:49.311Z,49.03
2019-05-14T19:02:18.438Z,48.09
2019-05-14T19:08:28.611Z,49.77
2019-05-14T19:11:15.977Z,51.08
2019-05-14T19:13:45.069Z,50.81
2019-05-14T19:16:13.333Z,52.08
2019-05-14T19:21:48.846Z,53.62
2019-05-14T19:24:18.865Z,53.80
2019-05-14T19:26:49.420Z,53.28
2019-05-14T19:32:28.259Z,54.35
2019-05-14T19:34:57.715Z,54.82
2019-05-14T19:37:26.241Z,54.80
2019-05-14T19:39:58.741Z,54.65
2019-05-14T19:48:38.245Z,56.87
2019-05-14T19:51:08.198Z,57.26
2019-05-14T19:53:39.000Z,57.50
2019-05-14T19:56:06.606Z,58.88
2019-05-14T19:58:34.885Z,59.39
2019-05-14T20:06:53.549Z,59.16
2019-05-14T20:09:21.825Z,59.25
2019-05-14T20:11:50.094Z,59.79
2019-05-14T20:14:18.377Z,60.04
2019-05-14T20:19:42.183Z,60.49
2019-05-14T20:22:10.458Z,61.63
2019-05-14T20:24:41.531Z,62.21
2019-05-14T20:27:12.120Z,63.15
2019-05-14T20:29:38.756Z,63.44
2019-05-14T20:35:30.849Z,64.39
2019-05-14T20:37:49.357Z,64.24
2019-05-14T20:43:31.720Z,64.68
2019-05-14T20:45:59.999Z,65.12
2019-05-14T20:48:28.270Z,65.61
2019-05-14T20:50:58.481Z,64.72
2019-05-14T20:56:15.407Z,64.82
2019-05-14T21:01:41.919Z,67.43
2019-05-14T21:04:10.227Z,68.59
2019-05-14T21:06:39.408Z,68.32
2019-05-14T21:09:07.711Z,69.91
2019-05-14T21:11:38.243Z,70.89
2019-05-14T21:14:26.328Z,69.46
2019-05-14T21:19:56.484Z,70.03
2019-05-14T21:22:24.792Z,69.00
2019-05-14T21:27:52.062Z,73.38
2019-05-14T21:33:39.013Z,74.28
2019-05-14T21:36:09.428Z,73.90
2019-05-14T21:44:31.032Z,76.15
2019-05-14T21:46:59.353Z,76.40
2019-05-14T21:56:06.848Z,75.17
2019-05-14T22:04:58.240Z,75.51
2019-05-14T22:07:27.647Z,76.94
2019-05-14T22:09:58.240Z,76.56
2019-05-14T22:12:48.774Z,76.26
2019-05-14T22:15:18.480Z,76.28
2019-05-14T22:17:48.961Z,75.73
2019-05-14T22:20:19.255Z,75.84
2019-05-14T22:22:48.356Z,76.02
2019-05-14T22:25:19.021Z,77.10
2019-05-14T22:28:12.324Z,78.63
2019-05-14T22:30:38.868Z,77.70
2019-05-14T22:33:08.542Z,77.81
2019-05-14T22:38:35.830Z,78.38
2019-05-14T22:44:00.445Z,78.64
2019-05-14T22:49:16.053Z,77.77
2019-05-14T22:51:44.350Z,77.97
2019-05-14T22:54:12.697Z,78.16
2019-05-14T22:59:28.518Z,79.55
2019-05-14T23:01:58.837Z,79.25
2019-05-14T23:04:28.810Z,79.82
2019-05-14T23:06:58.671Z,80.99
2019-05-14T23:09:26.799Z,81.61
2019-05-14T23:11:55.078Z,84.29
2019-05-14T23:14:23.375Z,84.81
2019-05-14T23:16:54.203Z,86.78
2019-05-14T23:19:22.499Z,88.67
2019-05-14T23:21:50.785Z,89.64
2019-05-14T23:34:00.656Z,92.66
2019-05-14T23:36:29.271Z,93.26
2019-05-14T23:39:38.329Z,93.14
2019-05-14T23:42:08.968Z,92.00
2019-05-14T23:44:38.240Z,91.01
2019-05-14T23:47:08.271Z,91.59
2019-05-14T23:53:00.069Z,92.80
2019-05-14T23:55:49.246Z,92.19
2019-05-14T23:58:20.580Z,90.85
